sensor_id;sensor_type;location;lat;lon;timestamp;P1;durP1;ratioP1;P2;durP2;ratioP2
52029;SDS011;38043;53.224;6.580;2023-07-08T08:33:58;6.80;;;3.42;;
52029;SDS011;38043;53.224;6.580;2023-07-08T08:36:23;13.05;;;3.95;;
52029;SDS011;38043;53.224;6.580;2023-07-08T08:38:49;7.55;;;3.30;;
52029;SDS011;38043;53.224;6.580;2023-07-08T08:41:16;7.07;;;3.25;;
52029;SDS011;38043;53.224;6.580;2023-07-08T08:43:43;5.13;;;3.60;;
52029;SDS011;38043;53.224;6.580;2023-07-08T08:51:31;4.78;;;2.88;;
52029;SDS011;38043;53.224;6.580;2023-07-08T08:53:57;8.90;;;3.13;;
52029;SDS011;38043;53.224;6.580;2023-07-08T08:56:27;9.30;;;3.58;;
52029;SDS011;38043;53.224;6.580;2023-07-08T08:59:02;5.32;;;2.90;;
52029;SDS011;38043;53.224;6.580;2023-07-08T09:01:36;7.55;;;3.13;;
52029;SDS011;38043;53.224;6.580;2023-07-08T09:04:08;5.78;;;3.30;;
52029;SDS011;38043;53.224;6.580;2023-07-08T09:06:40;9.23;;;4.10;;
52029;SDS011;38043;53.224;6.580;2023-07-08T09:09:14;6.13;;;3.00;;
52029;SDS011;38043;53.224;6.580;2023-07-08T09:14:34;10.05;;;3.03;;
52029;SDS011;38043;53.224;6.580;2023-07-08T09:19:40;6.63;;;3.17;;
52029;SDS011;38043;53.224;6.580;2023-07-08T09:22:16;6.25;;;2.85;;
52029;SDS011;38043;53.224;6.580;2023-07-08T09:27:18;4.97;;;3.00;;
52029;SDS011;38043;53.224;6.580;2023-07-08T09:29:45;6.90;;;3.22;;
52029;SDS011;38043;53.224;6.580;2023-07-08T09:32:19;10.88;;;3.13;;
52029;SDS011;38043;53.224;6.580;2023-07-08T09:39:53;7.18;;;3.00;;
52029;SDS011;38043;53.224;6.580;2023-07-08T09:42:20;5.43;;;3.20;;
52029;SDS011;38043;53.224;6.580;2023-07-08T09:44:49;7.53;;;3.13;;
52029;SDS011;38043;53.224;6.580;2023-07-08T09:47:28;5.43;;;3.00;;
52029;SDS011;38043;53.224;6.580;2023-07-08T09:49:58;5.03;;;3.13;;
52029;SDS011;38043;53.224;6.580;2023-07-08T09:52:25;6.45;;;3.08;;
52029;SDS011;38043;53.224;6.580;2023-07-08T09:54:54;8.55;;;3.05;;
52029;SDS011;38043;53.224;6.580;2023-07-08T09:59:56;7.28;;;3.17;;
52029;SDS011;38043;53.224;6.580;2023-07-08T10:02:30;4.82;;;3.00;;
52029;SDS011;38043;53.224;6.580;2023-07-08T10:04:59;7.93;;;3.35;;
52029;SDS011;38043;53.224;6.580;2023-07-08T10:07:28;5.57;;;3.17;;
52029;SDS011;38043;53.224;6.580;2023-07-08T10:09:56;4.15;;;3.03;;
52029;SDS011;38043;53.224;6.580;2023-07-08T10:12:25;6.45;;;3.30;;
52029;SDS011;38043;53.224;6.580;2023-07-08T10:14:53;6.95;;;3.03;;
52029;SDS011;38043;53.224;6.580;2023-07-08T10:17:31;10.27;;;3.05;;
52029;SDS011;38043;53.224;6.580;2023-07-08T10:19:58;4.10;;;2.75;;
52029;SDS011;38043;53.224;6.580;2023-07-08T10:31:11;5.93;;;3.50;;
52029;SDS011;38043;53.224;6.580;2023-07-08T10:39:53;4.78;;;3.13;;
52029;SDS011;38043;53.224;6.580;2023-07-08T10:48:30;7.10;;;3.40;;
52029;SDS011;38043;53.224;6.580;2023-07-08T10:51:15;6.28;;;2.80;;
52029;SDS011;38043;53.224;6.580;2023-07-08T10:56:28;6.70;;;3.05;;
52029;SDS011;38043;53.224;6.580;2023-07-08T11:09:58;8.27;;;3.47;;
52029;SDS011;38043;53.224;6.580;2023-07-08T11:17:52;13.25;;;3.88;;
52029;SDS011;38043;53.224;6.580;2023-07-08T11:23:41;15.57;;;3.67;;
52029;SDS011;38043;53.224;6.580;2023-07-08T11:26:30;6.45;;;3.67;;
52029;SDS011;38043;53.224;6.580;2023-07-08T11:29:20;9.02;;;4.00;;
52029;SDS011;38043;53.224;6.580;2023-07-08T11:31:56;9.25;;;3.38;;
52029;SDS011;38043;53.224;6.580;2023-07-08T11:34:23;9.00;;;3.55;;
52029;SDS011;38043;53.224;6.580;2023-07-08T11:36:53;7.45;;;3.20;;
52029;SDS011;38043;53.224;6.580;2023-07-08T11:39:38;4.63;;;2.70;;
52029;SDS011;38043;53.224;6.580;2023-07-08T11:44:46;4.47;;;3.17;;
52029;SDS011;38043;53.224;6.580;2023-07-08T11:47:26;8.73;;;3.58;;
52029;SDS011;38043;53.224;6.580;2023-07-08T11:50:01;6.93;;;3.40;;
52029;SDS011;38043;53.224;6.580;2023-07-08T11:52:29;10.73;;;3.60;;
52029;SDS011;38043;53.224;6.580;2023-07-08T11:55:12;7.30;;;3.50;;
52029;SDS011;38043;53.224;6.580;2023-07-08T11:57:45;8.23;;;3.20;;
52029;SDS011;38043;53.224;6.580;2023-07-08T12:00:19;5.40;;;3.40;;
52029;SDS011;38043;53.224;6.580;2023-07-08T12:02:49;4.70;;;3.38;;
52029;SDS011;38043;53.224;6.580;2023-07-08T12:05:56;7.88;;;3.90;;
52029;SDS011;38043;53.224;6.580;2023-07-08T12:08:18;5.95;;;3.58;;
52029;SDS011;38043;53.224;6.580;2023-07-08T12:10:51;8.23;;;2.80;;
52029;SDS011;38043;53.224;6.580;2023-07-08T12:13:19;13.32;;;3.90;;
52029;SDS011;38043;53.224;6.580;2023-07-08T12:15:55;6.30;;;3.33;;
52029;SDS011;38043;53.224;6.580;2023-07-08T12:18:24;7.00;;;3.92;;
52029;SDS011;38043;53.224;6.580;2023-07-08T12:20:56;5.45;;;3.40;;
52029;SDS011;38043;53.224;6.580;2023-07-08T12:23:24;4.63;;;3.30;;
52029;SDS011;38043;53.224;6.580;2023-07-08T12:25:51;7.32;;;3.53;;
52029;SDS011;38043;53.224;6.580;2023-07-08T12:28:18;5.45;;;3.80;;
52029;SDS011;38043;53.224;6.580;2023-07-08T12:33:14;4.47;;;3.45;;
52029;SDS011;38043;53.224;6.580;2023-07-08T12:35:50;7.10;;;3.38;;
52029;SDS011;38043;53.224;6.580;2023-07-08T12:40:53;7.40;;;3.50;;
52029;SDS011;38043;53.224;6.580;2023-07-08T12:43:20;7.22;;;3.67;;
52029;SDS011;38043;53.224;6.580;2023-07-08T12:45:47;6.75;;;3.42;;
52029;SDS011;38043;53.224;6.580;2023-07-08T12:48:13;6.27;;;3.27;;
52029;SDS011;38043;53.224;6.580;2023-07-08T12:50:41;8.63;;;3.85;;
52029;SDS011;38043;53.224;6.580;2023-07-08T12:53:07;8.23;;;3.70;;
52029;SDS011;38043;53.224;6.580;2023-07-08T12:55:37;9.75;;;3.50;;
52029;SDS011;38043;53.224;6.580;2023-07-08T12:58:09;7.85;;;3.42;;
52029;SDS011;38043;53.224;6.580;2023-07-08T13:00:38;9.18;;;3.42;;
52029;SDS011;38043;53.224;6.580;2023-07-08T13:03:08;7.63;;;3.83;;
52029;SDS011;38043;53.224;6.580;2023-07-08T13:05:40;8.75;;;3.88;;
52029;SDS011;38043;53.224;6.580;2023-07-08T13:08:13;7.57;;;3.60;;
52029;SDS011;38043;53.224;6.580;2023-07-08T13:11:01;6.00;;;3.85;;
52029;SDS011;38043;53.224;6.580;2023-07-08T13:13:39;5.70;;;3.83;;
52029;SDS011;38043;53.224;6.580;2023-07-08T13:16:13;6.55;;;3.80;;
52029;SDS011;38043;53.224;6.580;2023-07-08T13:18:40;11.30;;;4.18;;
52029;SDS011;38043;53.224;6.580;2023-07-08T13:21:08;6.53;;;3.75;;
52029;SDS011;38043;53.224;6.580;2023-07-08T13:23:38;6.35;;;3.55;;
52029;SDS011;38043;53.224;6.580;2023-07-08T13:26:17;8.17;;;4.00;;
52029;SDS011;38043;53.224;6.580;2023-07-08T13:28:45;9.07;;;3.83;;
52029;SDS011;38043;53.224;6.580;2023-07-08T13:31:17;7.63;;;4.00;;
52029;SDS011;38043;53.224;6.580;2023-07-08T13:33:51;8.77;;;4.10;;
52029;SDS011;38043;53.224;6.580;2023-07-08T13:36:19;8.45;;;4.30;;
52029;SDS011;38043;53.224;6.580;2023-07-08T13:39:09;5.80;;;3.88;;
52029;SDS011;38043;53.224;6.580;2023-07-08T13:41:42;7.75;;;4.03;;
52029;SDS011;38043;53.224;6.580;2023-07-08T13:44:09;7.78;;;4.05;;
52029;SDS011;38043;53.224;6.580;2023-07-08T13:49:10;7.28;;;4.60;;
52029;SDS011;38043;53.224;6.580;2023-07-08T13:51:38;8.77;;;5.93;;
52029;SDS011;38043;53.224;6.580;2023-07-08T13:56:53;11.73;;;10.05;;
52029;SDS011;38043;53.224;6.580;2023-07-08T13:59:22;16.45;;;10.10;;
52029;SDS011;38043;53.224;6.580;2023-07-08T14:01:53;14.18;;;8.65;;
52029;SDS011;38043;53.224;6.580;2023-07-08T14:04:23;11.98;;;9.40;;
52029;SDS011;38043;53.224;6.580;2023-07-08T14:09:24;13.85;;;8.93;;
52029;SDS011;38043;53.224;6.580;2023-07-08T14:11:50;11.60;;;9.00;;
52029;SDS011;38043;53.224;6.580;2023-07-08T14:14:17;11.68;;;7.80;;
52029;SDS011;38043;53.224;6.580;2023-07-08T14:16:52;11.50;;;6.75;;
52029;SDS011;38043;53.224;6.580;2023-07-08T14:19:24;9.65;;;5.95;;
52029;SDS011;38043;53.224;6.580;2023-07-08T14:21:57;9.60;;;5.55;;
52029;SDS011;38043;53.224;6.580;2023-07-08T14:24:24;6.72;;;5.10;;
52029;SDS011;38043;53.224;6.580;2023-07-08T14:26:51;11.00;;;5.68;;
52029;SDS011;38043;53.224;6.580;2023-07-08T14:29:18;7.78;;;4.68;;
52029;SDS011;38043;53.224;6.580;2023-07-08T14:31:44;8.17;;;5.37;;
52029;SDS011;38043;53.224;6.580;2023-07-08T14:34:17;6.63;;;4.43;;
52029;SDS011;38043;53.224;6.580;2023-07-08T14:36:50;7.85;;;5.18;;
52029;SDS011;38043;53.224;6.580;2023-07-08T14:39:17;8.40;;;4.95;;
52029;SDS011;38043;53.224;6.580;2023-07-08T14:41:47;7.18;;;4.80;;
52029;SDS011;38043;53.224;6.580;2023-07-08T14:46:50;12.05;;;5.10;;
52029;SDS011;38043;53.224;6.580;2023-07-08T14:49:17;7.10;;;4.85;;
52029;SDS011;38043;53.224;6.580;2023-07-08T14:51:44;7.45;;;4.78;;
52029;SDS011;38043;53.224;6.580;2023-07-08T14:54:10;7.47;;;4.60;;
52029;SDS011;38043;53.224;6.580;2023-07-08T14:56:37;8.77;;;5.07;;
52029;SDS011;38043;53.224;6.580;2023-07-08T14:59:03;6.63;;;5.10;;
52029;SDS011;38043;53.224;6.580;2023-07-08T15:01:29;8.60;;;4.60;;
52029;SDS011;38043;53.224;6.580;2023-07-08T15:03:56;10.43;;;5.68;;
52029;SDS011;38043;53.224;6.580;2023-07-08T15:06:23;7.30;;;5.47;;
52029;SDS011;38043;53.224;6.580;2023-07-08T15:08:49;8.05;;;5.10;;
52029;SDS011;38043;53.224;6.580;2023-07-08T15:11:15;10.27;;;5.68;;
52029;SDS011;38043;53.224;6.580;2023-07-08T15:13:41;8.25;;;5.65;;
52029;SDS011;38043;53.224;6.580;2023-07-08T15:16:13;7.40;;;4.93;;
52029;SDS011;38043;53.224;6.580;2023-07-08T15:18:41;7.05;;;5.07;;
52029;SDS011;38043;53.224;6.580;2023-07-08T15:23:39;10.27;;;5.05;;
52029;SDS011;38043;53.224;6.580;2023-07-08T15:26:05;9.02;;;5.40;;
52029;SDS011;38043;53.224;6.580;2023-07-08T15:31:13;9.27;;;5.28;;
52029;SDS011;38043;53.224;6.580;2023-07-08T15:33:40;7.22;;;5.25;;
52029;SDS011;38043;53.224;6.580;2023-07-08T15:36:08;9.05;;;5.28;;
52029;SDS011;38043;53.224;6.580;2023-07-08T15:38:36;7.28;;;5.57;;
52029;SDS011;38043;53.224;6.580;2023-07-08T15:41:02;11.67;;;5.73;;
52029;SDS011;38043;53.224;6.580;2023-07-08T15:43:29;7.65;;;6.07;;
52029;SDS011;38043;53.224;6.580;2023-07-08T15:45:55;10.90;;;5.57;;
52029;SDS011;38043;53.224;6.580;2023-07-08T15:48:20;9.30;;;5.73;;
52029;SDS011;38043;53.224;6.580;2023-07-08T15:50:46;7.37;;;5.63;;
52029;SDS011;38043;53.224;6.580;2023-07-08T15:53:14;10.63;;;5.50;;
52029;SDS011;38043;53.224;6.580;2023-07-08T15:55:42;7.38;;;5.65;;
52029;SDS011;38043;53.224;6.580;2023-07-08T15:58:14;9.20;;;5.72;;
52029;SDS011;38043;53.224;6.580;2023-07-08T16:00:48;9.15;;;6.45;;
52029;SDS011;38043;53.224;6.580;2023-07-08T16:03:21;7.60;;;5.40;;
52029;SDS011;38043;53.224;6.580;2023-07-08T16:05:51;6.82;;;5.50;;
52029;SDS011;38043;53.224;6.580;2023-07-08T16:08:18;15.10;;;7.25;;
52029;SDS011;38043;53.224;6.580;2023-07-08T16:10:47;11.10;;;5.22;;
52029;SDS011;38043;53.224;6.580;2023-07-08T16:13:15;8.68;;;5.55;;
52029;SDS011;38043;53.224;6.580;2023-07-08T16:16:02;8.63;;;5.38;;
52029;SDS011;38043;53.224;6.580;2023-07-08T16:18:29;15.77;;;5.78;;
52029;SDS011;38043;53.224;6.580;2023-07-08T16:20:54;7.57;;;6.00;;
52029;SDS011;38043;53.224;6.580;2023-07-08T16:23:22;7.43;;;5.57;;
52029;SDS011;38043;53.224;6.580;2023-07-08T16:25:50;8.38;;;5.18;;
52029;SDS011;38043;53.224;6.580;2023-07-08T16:28:19;9.45;;;5.53;;
52029;SDS011;38043;53.224;6.580;2023-07-08T16:31:16;10.10;;;6.32;;
52029;SDS011;38043;53.224;6.580;2023-07-08T16:33:44;10.00;;;5.97;;
52029;SDS011;38043;53.224;6.580;2023-07-08T16:36:15;11.40;;;5.57;;
52029;SDS011;38043;53.224;6.580;2023-07-08T16:38:45;9.15;;;5.43;;
52029;SDS011;38043;53.224;6.580;2023-07-08T16:41:12;11.93;;;6.22;;
52029;SDS011;38043;53.224;6.580;2023-07-08T16:43:41;9.13;;;7.43;;
52029;SDS011;38043;53.224;6.580;2023-07-08T16:46:08;15.43;;;13.87;;
52029;SDS011;38043;53.224;6.580;2023-07-08T16:48:35;10.68;;;7.25;;
52029;SDS011;38043;53.224;6.580;2023-07-08T16:51:01;8.07;;;5.75;;
52029;SDS011;38043;53.224;6.580;2023-07-08T16:53:26;12.18;;;6.15;;
52029;SDS011;38043;53.224;6.580;2023-07-08T16:55:52;7.75;;;5.60;;
52029;SDS011;38043;53.224;6.580;2023-07-08T16:58:18;13.75;;;6.25;;
52029;SDS011;38043;53.224;6.580;2023-07-08T17:00:44;11.32;;;7.15;;
52029;SDS011;38043;53.224;6.580;2023-07-08T17:03:12;11.07;;;5.95;;
52029;SDS011;38043;53.224;6.580;2023-07-08T17:05:39;11.43;;;7.88;;
52029;SDS011;38043;53.224;6.580;2023-07-08T17:08:07;22.10;;;9.00;;
52029;SDS011;38043;53.224;6.580;2023-07-08T17:10:37;16.27;;;9.85;;
52029;SDS011;38043;53.224;6.580;2023-07-08T17:13:03;8.40;;;5.80;;
52029;SDS011;38043;53.224;6.580;2023-07-08T17:15:29;22.67;;;13.13;;
52029;SDS011;38043;53.224;6.580;2023-07-08T17:17:58;11.27;;;5.70;;
52029;SDS011;38043;53.224;6.580;2023-07-08T17:22:54;6.70;;;5.30;;
52029;SDS011;38043;53.224;6.580;2023-07-08T17:25:23;11.60;;;7.38;;
52029;SDS011;38043;53.224;6.580;2023-07-08T17:27:51;12.20;;;5.80;;
52029;SDS011;38043;53.224;6.580;2023-07-08T17:30:18;9.65;;;6.28;;
52029;SDS011;38043;53.224;6.580;2023-07-08T17:32:47;11.50;;;6.55;;
52029;SDS011;38043;53.224;6.580;2023-07-08T17:35:16;9.40;;;5.57;;
52029;SDS011;38043;53.224;6.580;2023-07-08T17:37:43;8.98;;;5.78;;
52029;SDS011;38043;53.224;6.580;2023-07-08T17:42:42;9.20;;;5.60;;
52029;SDS011;38043;53.224;6.580;2023-07-08T17:45:09;9.80;;;5.75;;
52029;SDS011;38043;53.224;6.580;2023-07-08T17:47:36;8.70;;;5.93;;
52029;SDS011;38043;53.224;6.580;2023-07-08T17:50:08;11.10;;;6.45;;
52029;SDS011;38043;53.224;6.580;2023-07-08T17:52:42;8.40;;;6.00;;
52029;SDS011;38043;53.224;6.580;2023-07-08T17:55:08;8.85;;;6.13;;
52029;SDS011;38043;53.224;6.580;2023-07-08T17:57:35;8.63;;;5.40;;
52029;SDS011;38043;53.224;6.580;2023-07-08T18:00:02;9.25;;;5.70;;
52029;SDS011;38043;53.224;6.580;2023-07-08T18:02:31;7.30;;;5.10;;
52029;SDS011;38043;53.224;6.580;2023-07-08T18:04:57;8.80;;;5.82;;
52029;SDS011;38043;53.224;6.580;2023-07-08T18:07:22;6.68;;;5.38;;
52029;SDS011;38043;53.224;6.580;2023-07-08T18:09:50;7.03;;;5.45;;
52029;SDS011;38043;53.224;6.580;2023-07-08T18:12:16;7.90;;;5.53;;
52029;SDS011;38043;53.224;6.580;2023-07-08T18:14:42;9.82;;;5.70;;
52029;SDS011;38043;53.224;6.580;2023-07-08T18:17:10;8.25;;;5.53;;
52029;SDS011;38043;53.224;6.580;2023-07-08T18:19:35;14.15;;;5.53;;
52029;SDS011;38043;53.224;6.580;2023-07-08T18:22:02;12.93;;;5.43;;
52029;SDS011;38043;53.224;6.580;2023-07-08T18:24:28;8.93;;;6.07;;
52029;SDS011;38043;53.224;6.580;2023-07-08T18:26:54;11.65;;;5.63;;
52029;SDS011;38043;53.224;6.580;2023-07-08T18:29:19;10.55;;;5.88;;
52029;SDS011;38043;53.224;6.580;2023-07-08T18:31:45;9.77;;;5.53;;
52029;SDS011;38043;53.224;6.580;2023-07-08T18:34:11;7.45;;;5.32;;
52029;SDS011;38043;53.224;6.580;2023-07-08T18:36:38;7.00;;;5.53;;
52029;SDS011;38043;53.224;6.580;2023-07-08T18:39:05;10.25;;;5.80;;
52029;SDS011;38043;53.224;6.580;2023-07-08T18:41:38;8.13;;;5.60;;
52029;SDS011;38043;53.224;6.580;2023-07-08T18:44:15;13.23;;;5.53;;
52029;SDS011;38043;53.224;6.580;2023-07-08T18:46:46;9.82;;;4.78;;
52029;SDS011;38043;53.224;6.580;2023-07-08T18:49:12;6.28;;;4.72;;
52029;SDS011;38043;53.224;6.580;2023-07-08T18:51:39;7.28;;;4.88;;
52029;SDS011;38043;53.224;6.580;2023-07-08T18:54:17;9.60;;;5.45;;
52029;SDS011;38043;53.224;6.580;2023-07-08T18:56:46;8.60;;;5.18;;
52029;SDS011;38043;53.224;6.580;2023-07-08T18:59:12;8.77;;;5.40;;
52029;SDS011;38043;53.224;6.580;2023-07-08T19:01:39;6.95;;;5.40;;
52029;SDS011;38043;53.224;6.580;2023-07-08T19:04:10;9.48;;;5.85;;
52029;SDS011;38043;53.224;6.580;2023-07-08T19:06:45;6.47;;;5.40;;
52029;SDS011;38043;53.224;6.580;2023-07-08T19:09:11;9.45;;;5.20;;
52029;SDS011;38043;53.224;6.580;2023-07-08T19:11:37;9.10;;;5.30;;
52029;SDS011;38043;53.224;6.580;2023-07-08T19:14:09;7.57;;;5.20;;
52029;SDS011;38043;53.224;6.580;2023-07-08T19:16:38;9.50;;;5.35;;
52029;SDS011;38043;53.224;6.580;2023-07-08T19:19:05;8.13;;;5.30;;
52029;SDS011;38043;53.224;6.580;2023-07-08T19:21:30;9.35;;;5.55;;
52029;SDS011;38043;53.224;6.580;2023-07-08T19:23:57;6.55;;;5.38;;
52029;SDS011;38043;53.224;6.580;2023-07-08T19:26:24;13.40;;;5.50;;
52029;SDS011;38043;53.224;6.580;2023-07-08T19:31:18;9.20;;;5.07;;
52029;SDS011;38043;53.224;6.580;2023-07-08T19:33:56;9.13;;;5.05;;
52029;SDS011;38043;53.224;6.580;2023-07-08T19:36:23;7.45;;;5.25;;
52029;SDS011;38043;53.224;6.580;2023-07-08T19:38:49;9.02;;;5.18;;
52029;SDS011;38043;53.224;6.580;2023-07-08T19:41:22;8.00;;;5.15;;
52029;SDS011;38043;53.224;6.580;2023-07-08T19:43:55;11.25;;;5.50;;
52029;SDS011;38043;53.224;6.580;2023-07-08T19:46:22;9.50;;;4.93;;
52029;SDS011;38043;53.224;6.580;2023-07-08T19:48:48;9.68;;;5.47;;
52029;SDS011;38043;53.224;6.580;2023-07-08T19:51:14;7.00;;;4.85;;
52029;SDS011;38043;53.224;6.580;2023-07-08T19:53:40;9.35;;;5.30;;
52029;SDS011;38043;53.224;6.580;2023-07-08T19:56:16;11.80;;;5.25;;
52029;SDS011;38043;53.224;6.580;2023-07-08T19:58:45;7.47;;;5.55;;
52029;SDS011;38043;53.224;6.580;2023-07-08T20:01:11;8.02;;;5.50;;
52029;SDS011;38043;53.224;6.580;2023-07-08T20:03:38;5.80;;;4.93;;
52029;SDS011;38043;53.224;6.580;2023-07-08T20:06:17;20.10;;;5.88;;
52029;SDS011;38043;53.224;6.580;2023-07-08T20:08:50;9.30;;;5.25;;
52029;SDS011;38043;53.224;6.580;2023-07-08T20:11:16;13.65;;;6.20;;
52029;SDS011;38043;53.224;6.580;2023-07-08T20:13:43;7.80;;;5.60;;
52029;SDS011;38043;53.224;6.580;2023-07-08T20:16:13;6.20;;;4.88;;
52029;SDS011;38043;53.224;6.580;2023-07-08T20:18:41;7.80;;;4.88;;
52029;SDS011;38043;53.224;6.580;2023-07-08T20:21:07;8.60;;;5.45;;
52029;SDS011;38043;53.224;6.580;2023-07-08T20:23:33;9.75;;;5.20;;
52029;SDS011;38043;53.224;6.580;2023-07-08T20:25:59;9.20;;;5.53;;
52029;SDS011;38043;53.224;6.580;2023-07-08T20:28:26;9.48;;;5.13;;
52029;SDS011;38043;53.224;6.580;2023-07-08T20:30:54;7.25;;;5.45;;
52029;SDS011;38043;53.224;6.580;2023-07-08T20:33:21;8.70;;;5.03;;
52029;SDS011;38043;53.224;6.580;2023-07-08T20:35:47;6.93;;;5.38;;
52029;SDS011;38043;53.224;6.580;2023-07-08T20:38:13;10.68;;;4.72;;
52029;SDS011;38043;53.224;6.580;2023-07-08T20:40:40;6.10;;;4.68;;
52029;SDS011;38043;53.224;6.580;2023-07-08T20:43:12;10.07;;;5.45;;
52029;SDS011;38043;53.224;6.580;2023-07-08T20:45:41;8.85;;;5.32;;
52029;SDS011;38043;53.224;6.580;2023-07-08T20:50:48;10.05;;;5.15;;
52029;SDS011;38043;53.224;6.580;2023-07-08T20:53:14;9.35;;;5.88;;
52029;SDS011;38043;53.224;6.580;2023-07-08T20:55:43;7.57;;;4.85;;
52029;SDS011;38043;53.224;6.580;2023-07-08T20:58:11;10.70;;;5.30;;
52029;SDS011;38043;53.224;6.580;2023-07-08T21:00:38;10.38;;;5.70;;
52029;SDS011;38043;53.224;6.580;2023-07-08T21:03:05;10.57;;;5.35;;
52029;SDS011;38043;53.224;6.580;2023-07-08T21:05:34;6.60;;;5.10;;
52029;SDS011;38043;53.224;6.580;2023-07-08T21:08:00;7.63;;;5.50;;
52029;SDS011;38043;53.224;6.580;2023-07-08T21:10:26;8.57;;;5.03;;
52029;SDS011;38043;53.224;6.580;2023-07-08T21:12:53;6.90;;;5.18;;
52029;SDS011;38043;53.224;6.580;2023-07-08T21:17:52;11.93;;;5.90;;
52029;SDS011;38043;53.224;6.580;2023-07-08T21:20:18;11.45;;;6.18;;
52029;SDS011;38043;53.224;6.580;2023-07-08T21:22:46;7.03;;;4.95;;
52029;SDS011;38043;53.224;6.580;2023-07-08T21:25:13;11.55;;;5.07;;
52029;SDS011;38043;53.224;6.580;2023-07-08T21:27:41;9.65;;;5.90;;
52029;SDS011;38043;53.224;6.580;2023-07-08T21:30:10;8.02;;;5.65;;
52029;SDS011;38043;53.224;6.580;2023-07-08T21:32:47;10.60;;;5.80;;
52029;SDS011;38043;53.224;6.580;2023-07-08T21:35:13;9.65;;;5.30;;
52029;SDS011;38043;53.224;6.580;2023-07-08T21:37:43;8.50;;;5.40;;
52029;SDS011;38043;53.224;6.580;2023-07-08T21:40:46;8.32;;;5.68;;
52029;SDS011;38043;53.224;6.580;2023-07-08T21:43:10;13.27;;;5.68;;
52029;SDS011;38043;53.224;6.580;2023-07-08T21:45:38;7.85;;;5.53;;
52029;SDS011;38043;53.224;6.580;2023-07-08T21:48:05;11.55;;;6.63;;
52029;SDS011;38043;53.224;6.580;2023-07-08T21:50:39;11.25;;;7.30;;
52029;SDS011;38043;53.224;6.580;2023-07-08T21:53:16;10.73;;;6.28;;
52029;SDS011;38043;53.224;6.580;2023-07-08T21:55:51;15.23;;;5.60;;
52029;SDS011;38043;53.224;6.580;2023-07-08T21:58:17;13.98;;;5.30;;
52029;SDS011;38043;53.224;6.580;2023-07-08T22:00:43;10.77;;;5.43;;
52029;SDS011;38043;53.224;6.580;2023-07-08T22:03:14;8.50;;;5.22;;
52029;SDS011;38043;53.224;6.580;2023-07-08T22:05:41;8.05;;;5.22;;
52029;SDS011;38043;53.224;6.580;2023-07-08T22:08:14;7.13;;;5.70;;
52029;SDS011;38043;53.224;6.580;2023-07-08T22:10:47;11.32;;;5.97;;
52029;SDS011;38043;53.224;6.580;2023-07-08T22:15:54;8.93;;;5.50;;
52029;SDS011;38043;53.224;6.580;2023-07-08T22:18:25;10.75;;;5.65;;
52029;SDS011;38043;53.224;6.580;2023-07-08T22:20:52;9.43;;;6.07;;
52029;SDS011;38043;53.224;6.580;2023-07-08T22:23:23;8.13;;;5.88;;
52029;SDS011;38043;53.224;6.580;2023-07-08T22:25:50;7.95;;;5.93;;
52029;SDS011;38043;53.224;6.580;2023-07-08T22:28:16;9.77;;;5.50;;
52029;SDS011;38043;53.224;6.580;2023-07-08T22:30:42;11.10;;;5.85;;
52029;SDS011;38043;53.224;6.580;2023-07-08T22:33:12;7.85;;;5.82;;
52029;SDS011;38043;53.224;6.580;2023-07-08T22:35:39;10.55;;;6.18;;
52029;SDS011;38043;53.224;6.580;2023-07-08T22:38:05;7.93;;;5.28;;
52029;SDS011;38043;53.224;6.580;2023-07-08T22:40:32;11.80;;;5.97;;
52029;SDS011;38043;53.224;6.580;2023-07-08T22:43:03;9.52;;;5.70;;
52029;SDS011;38043;53.224;6.580;2023-07-08T22:45:29;13.25;;;6.70;;
52029;SDS011;38043;53.224;6.580;2023-07-08T22:47:54;9.80;;;6.40;;
52029;SDS011;38043;53.224;6.580;2023-07-08T22:50:22;10.73;;;6.03;;
52029;SDS011;38043;53.224;6.580;2023-07-08T22:52:54;13.38;;;5.63;;
52029;SDS011;38043;53.224;6.580;2023-07-08T22:55:31;11.70;;;5.97;;
52029;SDS011;38043;53.224;6.580;2023-07-08T22:57:58;12.00;;;6.28;;
52029;SDS011;38043;53.224;6.580;2023-07-08T23:00:26;12.35;;;6.45;;
52029;SDS011;38043;53.224;6.580;2023-07-08T23:05:19;12.55;;;6.10;;
52029;SDS011;38043;53.224;6.580;2023-07-08T23:07:49;12.77;;;6.32;;
52029;SDS011;38043;53.224;6.580;2023-07-08T23:10:15;10.25;;;6.00;;
52029;SDS011;38043;53.224;6.580;2023-07-08T23:12:41;11.23;;;6.35;;
52029;SDS011;38043;53.224;6.580;2023-07-08T23:15:07;10.10;;;6.60;;
52029;SDS011;38043;53.224;6.580;2023-07-08T23:17:36;12.75;;;6.85;;
52029;SDS011;38043;53.224;6.580;2023-07-08T23:20:04;8.63;;;6.43;;
52029;SDS011;38043;53.224;6.580;2023-07-08T23:22:36;11.30;;;6.57;;
52029;SDS011;38043;53.224;6.580;2023-07-08T23:25:01;7.97;;;6.47;;
52029;SDS011;38043;53.224;6.580;2023-07-08T23:27:27;10.40;;;6.88;;
52029;SDS011;38043;53.224;6.580;2023-07-08T23:29:55;9.40;;;6.18;;
52029;SDS011;38043;53.224;6.580;2023-07-08T23:32:21;8.93;;;6.13;;
52029;SDS011;38043;53.224;6.580;2023-07-08T23:34:47;10.65;;;6.55;;
52029;SDS011;38043;53.224;6.580;2023-07-08T23:37:12;14.20;;;6.75;;
52029;SDS011;38043;53.224;6.580;2023-07-08T23:39:38;10.02;;;6.20;;
52029;SDS011;38043;53.224;6.580;2023-07-08T23:42:04;11.18;;;6.63;;
52029;SDS011;38043;53.224;6.580;2023-07-08T23:44:30;10.02;;;6.93;;
52029;SDS011;38043;53.224;6.580;2023-07-08T23:46:56;12.20;;;6.80;;
52029;SDS011;38043;53.224;6.580;2023-07-08T23:49:28;9.20;;;6.15;;
52029;SDS011;38043;53.224;6.580;2023-07-08T23:51:59;11.05;;;6.60;;
52029;SDS011;38043;53.224;6.580;2023-07-08T23:54:33;11.63;;;7.07;;
52029;SDS011;38043;53.224;6.580;2023-07-08T23:57:00;10.77;;;6.63;;
52029;SDS011;38043;53.224;6.580;2023-07-08T23:59:31;15.35;;;6.63;;
